Time;durP1;ratioP1;P1;durP2;ratioP2;P2;SDS_P1;SDS_P2;PMS_P1;PMS_P2;Temp;Humidity;BMP_temperature;BMP_pressure;BME280_temperature;BME280_humidity;BME280_pressure;Samples;Min_cycle;Max_cycle;Signal;HPM_P1;HPM_P2
2022/09/22 00:01:32;;;;;;;3.08;2.70;;;5.80;99.90;;;;;;5008510;28;20419;-34
2022/09/22 00:04:05;;;;;;;3.38;2.75;;;5.60;99.90;;;;;;5012627;28;20482;-29
2022/09/22 00:06:43;;;;;;;3.83;3.10;;;5.50;99.90;;;;;;5008341;28;20103;-38
2022/09/22 00:09:11;;;;;;;2.92;2.67;;;5.50;99.90;;;;;;5011116;28;20104;-33
2022/09/22 00:11:41;;;;;;;2.92;2.53;;;5.50;99.90;;;;;;5010528;28;20032;-31
2022/09/22 00:14:14;;;;;;;4.35;2.88;;;5.50;99.90;;;;;;5011207;28;20061;-34
2022/09/22 00:16:46;;;;;;;4.57;2.65;;;5.40;99.90;;;;;;5008759;28;20034;-38
2022/09/22 00:19:19;;;;;;;3.10;2.30;;;5.40;99.90;;;;;;5011413;28;20041;-34
2022/09/22 00:21:46;;;;;;;2.88;2.47;;;5.30;99.90;;;;;;5013057;28;20037;-38
2022/09/22 00:24:12;;;;;;;2.20;2.00;;;5.40;99.90;;;;;;5006954;28;20081;-37
2022/09/22 00:26:38;;;;;;;3.33;2.13;;;5.40;99.90;;;;;;5010822;28;20617;-32
2022/09/22 00:29:09;;;;;;;3.22;2.10;;;5.50;99.90;;;;;;5012727;28;20079;-30
2022/09/22 00:31:37;;;;;;;2.50;2.30;;;5.50;99.90;;;;;;5018941;28;20413;-34
2022/09/22 00:34:03;;;;;;;2.08;1.88;;;5.40;99.90;;;;;;5028315;28;20044;-38
2022/09/22 00:36:30;;;;;;;2.13;2.00;;;5.40;99.90;;;;;;5024859;28;20425;-33
2022/09/22 00:38:56;;;;;;;1.55;1.45;;;5.40;99.90;;;;;;5027383;28;20402;-36
2022/09/22 00:41:24;;;;;;;1.80;1.70;;;5.30;99.90;;;;;;5027034;28;20025;-35
2022/09/22 00:44:11;;;;;;;1.70;1.60;;;5.30;99.90;;;;;;5026730;28;20025;-32
2022/09/22 00:46:39;;;;;;;2.00;1.90;;;5.20;99.90;;;;;;5026164;28;20076;-31
2022/09/22 00:49:06;;;;;;;2.15;1.98;;;5.30;99.90;;;;;;5028760;28;20558;-33
2022/09/22 00:51:36;;;;;;;2.60;2.20;;;5.30;99.90;;;;;;5025463;28;20474;-35
2022/09/22 00:54:07;;;;;;;3.03;2.80;;;5.30;99.90;;;;;;5025616;28;20064;-33
2022/09/22 00:56:42;;;;;;;3.80;2.90;;;5.30;99.90;;;;;;5023748;28;20060;-34
2022/09/22 00:59:11;;;;;;;2.50;2.30;;;5.10;99.90;;;;;;5026106;28;20064;-33
2022/09/22 01:01:39;;;;;;;2.85;2.60;;;5.10;99.90;;;;;;5018915;28;20450;-39
2022/09/22 01:04:06;;;;;;;2.70;2.50;;;5.10;99.90;;;;;;5010371;28;20030;-35
2022/09/22 01:06:33;;;;;;;2.90;2.63;;;5.20;99.90;;;;;;5009304;28;20040;-33
2022/09/22 01:09:00;;;;;;;3.55;2.55;;;5.20;99.90;;;;;;5014319;28;20032;-37
2022/09/22 01:11:28;;;;;;;2.65;2.28;;;5.10;99.90;;;;;;5014177;28;20029;-35
2022/09/22 01:14:13;;;;;;;3.05;2.30;;;5.10;99.90;;;;;;5018425;28;20068;-34
2022/09/22 01:17:07;;;;;;;3.03;2.45;;;5.10;99.90;;;;;;5009777;28;20601;-38
2022/09/22 01:20:02;;;;;;;1.92;1.77;;;5.10;99.90;;;;;;5007539;28;20609;-38
2022/09/22 01:22:55;;;;;;;2.30;2.10;;;5.10;99.90;;;;;;5009926;28;20490;-37
2022/09/22 01:25:21;;;;;;;2.38;2.17;;;5.00;99.90;;;;;;5011721;28;20040;-29
2022/09/22 01:28:04;;;;;;;1.80;1.70;;;4.90;99.90;;;;;;5009997;28;20276;-36
2022/09/22 01:30:51;;;;;;;2.58;2.38;;;4.80;99.90;;;;;;5010697;28;20096;-38
2022/09/22 01:33:27;;;;;;;3.33;2.15;;;4.80;99.90;;;;;;5014431;28;20025;-34
2022/09/22 01:36:25;;;;;;;2.92;2.10;;;4.80;99.90;;;;;;5011956;28;20036;-36
2022/09/22 01:39:03;;;;;;;;;;;4.80;99.90;;;;;;5013088;28;20036;-38
2022/09/22 01:41:41;;;;;;;3.07;1.87;;;4.40;99.90;;;;;;5011942;28;19939;-38
2022/09/22 01:44:15;;;;;;;2.53;2.25;;;4.30;99.90;;;;;;5013816;28;20283;-34
2022/09/22 01:46:50;;;;;;;3.10;2.30;;;4.30;99.90;;;;;;5011935;28;20037;-31
2022/09/22 01:49:18;;;;;;;2.50;2.10;;;4.40;99.90;;;;;;5010582;28;20029;-31
2022/09/22 01:51:57;;;;;;;2.78;2.53;;;4.40;99.90;;;;;;5010869;28;20752;-31
2022/09/22 01:54:38;;;;;;;3.03;2.45;;;4.50;99.90;;;;;;5015312;28;20432;-35
2022/09/22 01:57:16;;;;;;;2.45;1.85;;;4.50;99.90;;;;;;5010861;28;20029;-38
2022/09/22 01:59:47;;;;;;;2.40;2.13;;;4.50;99.90;;;;;;5011921;28;20565;-38
2022/09/22 02:02:21;;;;;;;2.50;2.20;;;4.50;99.90;;;;;;5009226;28;20494;-34
2022/09/22 02:04:53;;;;;;;3.28;2.10;;;4.50;99.90;;;;;;5004720;28;20128;-37
2022/09/22 02:07:25;;;;;;;2.40;2.20;;;4.50;99.90;;;;;;5006241;28;20481;-29
2022/09/22 02:09:50;;;;;;;2.20;2.00;;;4.40;99.90;;;;;;5005258;28;20150;-34
2022/09/22 02:12:17;;;;;;;2.30;1.83;;;4.50;99.90;;;;;;5006320;28;22568;-38
2022/09/22 02:14:44;;;;;;;2.10;1.90;;;4.50;99.90;;;;;;5005872;28;20045;-36
2022/09/22 02:17:12;;;;;;;2.33;2.10;;;4.50;99.90;;;;;;5005300;28;20148;-34
2022/09/22 02:19:40;;;;;;;2.22;2.03;;;4.50;99.90;;;;;;5008661;28;20486;-38
2022/09/22 02:22:08;;;;;;;2.85;1.67;;;4.50;99.90;;;;;;5011596;28;20411;-35
2022/09/22 02:24:36;;;;;;;2.50;2.13;;;4.50;99.90;;;;;;5013122;28;20026;-37
2022/09/22 02:27:26;;;;;;;3.00;2.03;;;4.40;99.90;;;;;;5008630;28;20026;-30
2022/09/22 02:30:00;;;;;;;3.33;2.00;;;4.40;99.90;;;;;;5009763;28;20037;-39
2022/09/22 02:32:27;;;;;;;2.80;2.25;;;4.40;99.90;;;;;;5015763;28;20033;-38
2022/09/22 02:34:54;;;;;;;1.88;1.73;;;4.40;99.90;;;;;;5011472;28;20030;-38
2022/09/22 02:37:42;;;;;;;2.15;2.00;;;4.50;99.90;;;;;;5017383;28;20030;-35
2022/09/22 02:40:29;;;;;;;3.30;2.17;;;4.50;99.90;;;;;;5012941;28;20119;-38
2022/09/22 02:43:11;;;;;;;2.10;1.90;;;4.50;99.90;;;;;;5018659;28;20038;-37
2022/09/22 02:46:26;;;;;;;2.28;2.08;;;4.50;99.90;;;;;;5019936;28;20029;-38
2022/09/22 02:49:03;;;;;;;2.10;1.90;;;4.30;99.90;;;;;;4989661;28;20479;-38
2022/09/22 02:51:30;;;;;;;2.05;1.85;;;4.20;99.90;;;;;;5015592;28;20042;-36
2022/09/22 02:53:56;;;;;;;4.55;2.10;;;4.20;99.90;;;;;;5018208;28;20036;-36
2022/09/22 02:56:22;;;;;;;3.95;2.22;;;4.20;99.90;;;;;;5012804;28;20471;-39
2022/09/22 02:58:49;;;;;;;3.88;2.70;;;4.20;99.90;;;;;;5013240;28;20018;-39
2022/09/22 03:01:15;;;;;;;2.03;1.83;;;4.30;99.90;;;;;;5015643;28;20041;-38
2022/09/22 03:03:40;;;;;;;1.73;1.40;;;4.30;99.90;;;;;;5021396;28;20034;-38
2022/09/22 03:06:06;;;;;;;6.10;2.00;;;4.20;99.90;;;;;;5018754;28;20955;-36
2022/09/22 03:08:32;;;;;;;1.70;1.60;;;4.20;99.90;;;;;;5021475;28;21222;-38
2022/09/22 03:10:57;;;;;;;1.40;1.33;;;4.20;99.90;;;;;;5020428;28;20060;-36
2022/09/22 03:13:23;;;;;;;1.52;1.42;;;4.20;99.90;;;;;;5022089;28;20552;-38
2022/09/22 03:15:48;;;;;;;1.25;1.15;;;4.10;99.90;;;;;;5016072;28;20140;-38
2022/09/22 03:18:14;;;;;;;1.27;1.23;;;4.00;99.90;;;;;;5017976;28;20397;-34
2022/09/22 03:20:40;;;;;;;1.00;1.00;;;4.00;99.90;;;;;;5026330;28;20068;-38
2022/09/22 03:23:06;;;;;;;1.40;1.30;;;4.10;99.90;;;;;;5022489;28;20025;-38
2022/09/22 03:25:32;;;;;;;1.40;1.30;;;4.00;99.90;;;;;;5024031;28;20406;-31
2022/09/22 03:27:57;;;;;;;2.15;1.90;;;4.00;99.90;;;;;;5022855;28;20033;-38
2022/09/22 03:30:23;;;;;;;1.80;1.70;;;4.00;99.90;;;;;;5023652;28;20114;-36
2022/09/22 03:32:48;;;;;;;3.80;1.88;;;4.00;99.90;;;;;;5038365;28;20067;-39
2022/09/22 03:35:14;;;;;;;2.17;1.77;;;3.90;99.90;;;;;;5039495;28;20490;-38
2022/09/22 03:37:40;;;;;;;2.88;1.75;;;4.00;99.90;;;;;;5032039;28;20025;-37
2022/09/22 03:40:06;;;;;;;2.22;2.13;;;4.00;99.90;;;;;;5034129;28;20043;-38
2022/09/22 03:42:33;;;;;;;2.13;2.00;;;3.90;99.90;;;;;;5037991;28;20025;-38
2022/09/22 03:44:59;;;;;;;2.43;2.23;;;3.90;99.90;;;;;;5036382;28;20398;-33
2022/09/22 03:47:25;;;;;;;3.33;2.50;;;3.90;99.90;;;;;;5036585;28;20029;-34
2022/09/22 03:49:50;;;;;;;5.60;3.35;;;3.90;99.90;;;;;;5036529;28;20071;-38
2022/09/22 03:52:16;;;;;;;5.50;3.55;;;3.90;99.90;;;;;;5035971;28;20037;-38
2022/09/22 03:54:41;;;;;;;5.63;3.33;;;3.70;99.90;;;;;;5036119;28;20029;-36
2022/09/22 03:57:07;;;;;;;6.43;3.47;;;3.50;99.90;;;;;;5034929;28;20486;-30
2022/09/22 03:59:33;;;;;;;5.97;3.60;;;3.50;99.90;;;;;;5035064;28;20440;-36
2022/09/22 04:01:59;;;;;;;4.88;3.17;;;3.50;99.90;;;;;;5029421;28;20037;-39
2022/09/22 04:04:25;;;;;;;4.43;2.85;;;3.60;99.90;;;;;;5022559;28;20091;-37
2022/09/22 04:06:50;;;;;;;4.30;2.67;;;3.60;99.90;;;;;;5029233;28;20037;-37
2022/09/22 04:09:17;;;;;;;2.90;2.20;;;3.50;99.90;;;;;;5024684;28;20030;-31
2022/09/22 04:11:43;;;;;;;2.67;2.30;;;3.20;99.90;;;;;;5024013;28;20394;-38
2022/09/22 04:14:09;;;;;;;3.15;2.08;;;3.20;99.90;;;;;;5027666;28;20045;-38
2022/09/22 04:16:34;;;;;;;2.30;1.88;;;3.20;99.90;;;;;;5029099;28;20099;-33
2022/09/22 04:19:01;;;;;;;2.88;1.85;;;3.30;99.90;;;;;;5022080;28;20390;-34
2022/09/22 04:21:27;;;;;;;2.40;2.20;;;3.30;99.90;;;;;;5023878;28;20034;-36
2022/09/22 04:23:53;;;;;;;6.00;2.10;;;3.30;99.90;;;;;;5026545;28;20036;-39
2022/09/22 04:26:18;;;;;;;3.78;2.25;;;3.30;99.90;;;;;;5025229;28;20056;-37
2022/09/22 04:28:44;;;;;;;2.22;2.13;;;3.30;99.90;;;;;;5027856;28;20037;-33
2022/09/22 04:31:09;;;;;;;2.63;2.42;;;3.40;99.90;;;;;;5021310;28;20490;-38
2022/09/22 04:33:35;;;;;;;3.75;2.33;;;3.40;99.90;;;;;;5028077;28;20405;-37
2022/09/22 04:36:01;;;;;;;4.15;2.83;;;3.40;99.90;;;;;;5030668;28;20646;-38
2022/09/22 04:38:26;;;;;;;4.93;3.15;;;3.30;99.90;;;;;;5029214;28;20056;-34
2022/09/22 04:40:52;;;;;;;3.95;2.90;;;3.20;99.90;;;;;;5022213;28;20034;-37
2022/09/22 04:43:17;;;;;;;5.88;3.22;;;3.20;99.90;;;;;;5026936;28;20467;-35
2022/09/22 04:45:45;;;;;;;6.75;3.13;;;3.20;99.90;;;;;;5026074;28;20029;-37
2022/09/22 04:48:10;;;;;;;3.50;3.05;;;3.20;99.90;;;;;;5030776;28;20033;-39
2022/09/22 04:50:36;;;;;;;5.00;3.38;;;3.30;99.90;;;;;;5025628;28;20470;-36
2022/09/22 04:53:02;;;;;;;5.47;3.38;;;3.30;99.90;;;;;;5026433;28;20037;-38
2022/09/22 04:55:27;;;;;;;4.20;3.15;;;3.40;99.90;;;;;;5021517;28;20131;-38
2022/09/22 04:57:56;;;;;;;5.88;3.72;;;3.40;99.90;;;;;;5022195;28;20361;-38
2022/09/22 05:00:25;;;;;;;3.70;3.00;;;3.40;99.90;;;;;;5012662;28;20034;-36
2022/09/22 05:02:51;;;;;;;5.07;3.50;;;3.40;99.90;;;;;;5012949;28;20766;-38
2022/09/22 05:05:17;;;;;;;4.72;2.97;;;3.40;99.90;;;;;;5013555;28;20087;-38
2022/09/22 05:07:45;;;;;;;5.68;3.22;;;3.40;99.90;;;;;;5018872;28;20040;-38
2022/09/22 05:10:11;;;;;;;4.18;2.78;;;3.40;99.90;;;;;;5007902;28;20401;-39
2022/09/22 05:12:41;;;;;;;3.70;2.63;;;3.40;99.90;;;;;;5015656;28;20026;-39
2022/09/22 05:15:08;;;;;;;3.45;3.15;;;3.30;99.90;;;;;;5009866;28;20065;-36
2022/09/22 05:17:35;;;;;;;2.80;2.05;;;3.30;99.90;;;;;;5010957;28;20036;-33
2022/09/22 05:20:05;;;;;;;1.95;1.75;;;3.30;99.90;;;;;;5014398;28;20074;-36
2022/09/22 05:22:31;;;;;;;3.35;1.85;;;3.30;99.90;;;;;;5011837;28;20497;-34
2022/09/22 05:24:57;;;;;;;2.17;2.03;;;3.30;99.90;;;;;;5010937;28;20021;-34
2022/09/22 05:27:23;;;;;;;6.97;2.92;;;3.30;99.90;;;;;;5012798;28;20411;-38
2022/09/22 05:29:48;;;;;;;3.30;2.28;;;3.20;99.90;;;;;;5009784;28;20879;-31
2022/09/22 05:32:14;;;;;;;2.40;2.20;;;3.30;99.90;;;;;;5027900;28;20048;-35
2022/09/22 05:34:40;;;;;;;1.70;1.60;;;3.30;99.90;;;;;;5032487;28;20514;-36
2022/09/22 05:37:05;;;;;;;1.90;1.80;;;3.20;99.90;;;;;;5032567;28;20175;-36
2022/09/22 05:39:31;;;;;;;2.20;2.00;;;3.20;99.90;;;;;;5035585;28;20138;-37
2022/09/22 05:41:57;;;;;;;2.80;1.75;;;3.20;99.90;;;;;;5031811;28;20028;-38
2022/09/22 05:44:23;;;;;;;2.72;2.08;;;3.20;99.90;;;;;;5033766;28;20022;-36
2022/09/22 05:46:49;;;;;;;3.03;2.20;;;3.20;99.90;;;;;;5036086;28;20410;-36
2022/09/22 05:49:14;;;;;;;3.45;2.17;;;3.10;99.90;;;;;;5030092;28;20036;-37
2022/09/22 05:51:40;;;;;;;10.93;2.95;;;3.10;99.90;;;;;;5033130;28;20028;-35
2022/09/22 05:54:06;;;;;;;3.65;3.08;;;3.20;99.90;;;;;;5034842;28;20095;-39
2022/09/22 05:56:32;;;;;;;6.38;3.72;;;3.20;99.90;;;;;;5031855;28;20029;-34
2022/09/22 05:58:58;;;;;;;6.28;4.05;;;3.30;99.90;;;;;;5034602;28;20063;-39
2022/09/22 06:01:23;;;;;;;7.20;3.83;;;3.30;99.90;;;;;;5033073;28;20494;-39
2022/09/22 06:03:49;;;;;;;8.65;3.40;;;3.40;99.90;;;;;;5034206;28;20456;-36
2022/09/22 06:06:14;;;;;;;4.90;2.90;;;3.30;99.90;;;;;;5031173;28;20037;-39
2022/09/22 06:08:40;;;;;;;7.82;3.83;;;3.30;99.90;;;;;;5037082;28;20090;-37
2022/09/22 06:11:07;;;;;;;7.03;4.05;;;3.20;99.90;;;;;;5037432;28;20091;-39
2022/09/22 06:13:32;;;;;;;4.10;3.42;;;3.30;99.90;;;;;;5023246;28;21439;-35
2022/09/22 06:16:02;;;;;;;5.22;3.72;;;3.40;99.90;;;;;;5029242;28;20044;-36
2022/09/22 06:18:30;;;;;;;9.85;5.45;;;3.50;99.90;;;;;;5033527;28;20024;-37
2022/09/22 06:20:56;;;;;;;6.68;3.88;;;3.60;99.90;;;;;;5032071;28;20044;-39
2022/09/22 06:23:24;;;;;;;8.68;4.55;;;3.70;99.90;;;;;;5033441;28;20033;-33
2022/09/22 06:25:56;;;;;;;7.27;4.97;;;3.70;99.90;;;;;;5038926;28;20501;-38
2022/09/22 06:28:22;;;;;;;11.30;4.95;;;3.70;99.90;;;;;;5037383;28;20056;-36
2022/09/22 06:30:48;;;;;;;6.65;4.18;;;3.80;99.90;;;;;;5030920;28;20755;-39
2022/09/22 06:33:14;;;;;;;8.68;5.65;;;3.90;99.90;;;;;;5019380;28;20052;-39
2022/09/22 06:35:41;;;;;;;7.68;3.92;;;3.90;99.90;;;;;;5025818;28;20072;-39
2022/09/22 06:38:10;;;;;;;5.88;4.18;;;4.00;99.90;;;;;;5019874;28;20030;-39
2022/09/22 06:40:36;;;;;;;10.27;3.83;;;4.10;99.90;;;;;;5021033;28;20052;-39
2022/09/22 06:43:11;;;;;;;5.35;4.35;;;4.30;99.90;;;;;;5020767;28;21373;-38
2022/09/22 06:45:41;;;;;;;10.40;3.70;;;4.40;99.90;;;;;;5021852;28;20059;-30
2022/09/22 06:48:09;;;;;;;3.75;3.45;;;4.60;99.90;;;;;;5022528;28;20034;-32
2022/09/22 06:50:35;;;;;;;5.97;4.30;;;4.70;99.90;;;;;;5021484;28;20061;-39
2022/09/22 06:53:03;;;;;;;6.57;4.28;;;4.80;99.90;;;;;;5018453;28;20061;-31
2022/09/22 06:55:29;;;;;;;4.97;4.07;;;4.90;99.90;;;;;;5024105;28;20037;-35
2022/09/22 06:57:57;;;;;;;6.57;4.10;;;5.00;99.90;;;;;;5028318;28;20034;-39
2022/09/22 07:00:30;;;;;;;5.22;4.18;;;5.10;99.90;;;;;;5028669;28;20041;-38
2022/09/22 07:03:14;;;;;;;4.40;3.92;;;5.10;99.90;;;;;;5035819;28;20033;-38
2022/09/22 07:05:39;;;;;;;6.97;4.80;;;5.20;99.90;;;;;;5037192;28;20112;-34
2022/09/22 07:08:05;;;;;;;6.70;4.65;;;5.40;99.90;;;;;;5033388;28;20035;-38
2022/09/22 07:10:36;;;;;;;7.43;5.15;;;5.50;99.90;;;;;;5032968;28;20505;-38
2022/09/22 07:13:04;;;;;;;12.02;5.55;;;5.70;99.90;;;;;;5039582;28;20488;-38
2022/09/22 07:15:30;;;;;;;8.43;5.40;;;5.90;99.90;;;;;;5041713;28;20529;-35
2022/09/22 07:17:56;;;;;;;8.18;5.30;;;6.10;99.90;;;;;;5033139;28;20028;-34
2022/09/22 07:20:22;;;;;;;11.65;6.28;;;6.20;99.90;;;;;;5037852;28;20462;-38
2022/09/22 07:22:47;;;;;;;10.52;5.97;;;6.30;99.90;;;;;;5035683;28;20025;-38
2022/09/22 07:25:15;;;;;;;15.25;6.60;;;6.40;99.90;;;;;;5035573;28;20037;-39
2022/09/22 07:27:40;;;;;;;7.05;5.55;;;6.50;99.90;;;;;;5037638;28;20041;-38
2022/09/22 07:30:09;;;;;;;10.32;6.75;;;6.70;99.90;;;;;;5034849;28;20497;-38
2022/09/22 07:32:34;;;;;;;11.65;7.78;;;6.80;99.90;;;;;;5035754;28;20133;-38
2022/09/22 07:35:02;;;;;;;8.10;6.82;;;7.00;99.90;;;;;;5033429;28;20018;-37
2022/09/22 07:37:32;;;;;;;8.68;6.22;;;7.10;99.90;;;;;;5032560;28;20061;-37
2022/09/22 07:39:59;;;;;;;8.65;6.57;;;7.30;99.90;;;;;;5041563;28;20029;-39
2022/09/22 07:42:25;;;;;;;8.07;5.53;;;7.50;99.90;;;;;;5034151;28;20037;-35
2022/09/22 07:50:20;;;;;;;10.10;5.78;;;8.00;99.90;;;;;;5032846;28;20035;-38
2022/09/22 07:52:52;;;;;;;13.18;5.90;;;8.30;99.90;;;;;;5040917;28;20024;-36
2022/09/22 07:55:23;;;;;;;7.75;6.32;;;8.40;99.90;;;;;;5038980;28;20660;-39
2022/09/22 07:58:07;;;;;;;9.43;5.85;;;8.60;99.90;;;;;;5022413;28;20120;-30
2022/09/22 08:00:35;;;;;;;9.63;5.85;;;8.80;99.90;;;;;;5036166;28;20029;-35
2022/09/22 08:03:00;;;;;;;8.60;5.35;;;9.10;99.90;;;;;;5015391;28;20048;-39
2022/09/22 08:05:27;;;;;;;5.82;4.18;;;9.20;99.90;;;;;;5013264;28;20545;-34
2022/09/22 08:07:57;;;;;;;6.47;3.50;;;9.40;99.90;;;;;;5018081;28;20459;-33
2022/09/22 08:10:23;;;;;;;4.05;3.65;;;9.60;99.90;;;;;;5013060;28;20079;-38
2022/09/22 08:12:52;;;;;;;3.45;3.15;;;9.80;99.90;;;;;;4999444;28;20450;-37
2022/09/22 08:15:21;;;;;;;3.30;3.00;;;9.90;99.90;;;;;;5005674;28;20329;-37
2022/09/22 08:17:47;;;;;;;3.65;3.15;;;10.00;99.90;;;;;;5009294;28;20030;-36
2022/09/22 08:20:13;;;;;;;4.53;3.05;;;10.20;99.90;;;;;;5018385;28;20430;-38
2022/09/22 08:22:40;;;;;;;5.47;3.13;;;10.50;99.90;;;;;;5010239;28;20030;-38
2022/09/22 08:25:06;;;;;;;2.65;2.25;;;10.50;99.90;;;;;;5015546;28;20732;-34
2022/09/22 08:27:35;;;;;;;3.92;2.95;;;10.60;99.90;;;;;;5016180;28;20398;-36
2022/09/22 08:30:01;;;;;;;3.20;2.60;;;10.70;99.90;;;;;;5004630;28;20486;-34
2022/09/22 08:32:29;;;;;;;3.45;2.90;;;10.70;99.90;;;;;;5015680;28;20073;-38
2022/09/22 08:34:56;;;;;;;2.97;2.60;;;10.90;99.90;;;;;;5023509;28;20033;-39
2022/09/22 08:37:23;;;;;;;3.37;2.37;;;11.00;99.90;;;;;;5022255;28;20038;-35
2022/09/22 08:39:49;;;;;;;4.05;3.10;;;11.20;99.90;;;;;;5023731;28;20937;-39
2022/09/22 08:42:19;;;;;;;4.43;2.80;;;11.20;99.90;;;;;;5022967;28;20029;-37
2022/09/22 08:45:01;;;;;;;3.47;2.83;;;11.40;99.90;;;;;;5023784;28;20029;-39
2022/09/22 08:53:50;;;;;;;3.13;2.13;;;11.80;99.90;;;;;;5024526;28;20159;-34
2022/09/22 08:56:42;;;;;;;3.05;2.20;;;11.80;99.90;;;;;;5041328;28;20032;-38
2022/09/22 08:59:21;;;;;;;2.50;2.30;;;11.70;99.90;;;;;;5023171;28;20025;-38
2022/09/22 09:02:06;;;;;;;3.72;2.22;;;11.80;99.90;;;;;;5018731;28;20567;-31
2022/09/22 09:05:02;;;;;;;2.10;1.92;;;11.90;99.90;;;;;;5024405;28;20022;-36
2022/09/22 09:08:05;;;;;;;3.90;2.00;;;12.00;99.90;;;;;;5021488;28;20673;-37
2022/09/22 09:10:59;;;;;;;2.03;1.80;;;12.20;98.10;;;;;;5020506;28;20399;-37
2022/09/22 09:13:52;;;;;;;2.50;2.20;;;12.20;97.50;;;;;;5034351;28;20049;-38
2022/09/22 09:16:46;;;;;;;3.15;2.55;;;12.30;99.90;;;;;;5029534;28;20487;-36
2022/09/22 09:19:52;;;;;;;2.97;2.10;;;12.50;97.90;;;;;;5019796;28;20037;-35
2022/09/22 09:22:24;;;;;;;3.97;2.35;;;12.70;98.10;;;;;;5015814;28;20041;-39
2022/09/22 09:24:56;;;;;;;3.35;2.60;;;12.80;99.20;;;;;;5023126;28;20021;-38
2022/09/22 09:27:27;;;;;;;2.63;2.42;;;12.80;99.10;;;;;;5021313;28;20032;-38
2022/09/22 09:30:10;;;;;;;3.25;2.63;;;12.80;97.50;;;;;;5023347;28;20036;-39
2022/09/22 09:32:49;;;;;;;3.80;3.13;;;13.00;99.00;;;;;;5025409;28;20025;-37
2022/09/22 09:35:21;;;;;;;3.13;2.53;;;13.00;97.90;;;;;;5024513;28;20037;-39
2022/09/22 09:37:47;;;;;;;2.50;2.30;;;13.00;97.70;;;;;;5025494;28;20024;-39
2022/09/22 09:40:17;;;;;;;2.95;2.75;;;13.10;96.10;;;;;;5024994;28;20029;-37
2022/09/22 09:42:54;;;;;;;2.63;2.42;;;13.20;97.70;;;;;;5026616;28;20438;-33
2022/09/22 09:45:24;;;;;;;2.92;2.10;;;13.20;95.40;;;;;;5022768;28;20407;-39
2022/09/22 09:48:20;;;;;;;2.42;2.20;;;13.20;96.80;;;;;;5025304;28;20440;-35
2022/09/22 09:50:46;;;;;;;2.47;2.28;;;13.30;95.30;;;;;;5026375;28;20628;-38
2022/09/22 09:53:30;;;;;;;4.60;2.78;;;13.40;96.50;;;;;;5027009;28;20045;-37
2022/09/22 09:55:57;;;;;;;2.60;2.40;;;13.50;94.60;;;;;;5022019;28;20651;-39
2022/09/22 10:01:12;;;;;;;2.88;2.08;;;13.50;92.40;;;;;;5023584;28;20466;-36
2022/09/22 10:03:46;;;;;;;2.00;1.90;;;13.60;94.10;;;;;;5029657;28;20048;-39
2022/09/22 10:06:13;;;;;;;2.13;1.92;;;13.70;92.60;;;;;;5025480;28;20044;-34
2022/09/22 10:08:46;;;;;;;2.92;1.80;;;13.70;91.20;;;;;;5014970;28;20025;-35
2022/09/22 10:11:13;;;;;;;2.90;2.22;;;13.80;88.20;;;;;;5012763;28;20155;-39
2022/09/22 10:13:40;;;;;;;1.95;1.75;;;13.70;93.90;;;;;;5015348;28;20087;-34
2022/09/22 10:16:06;;;;;;;3.38;2.47;;;13.80;89.60;;;;;;5010241;28;20052;-38
2022/09/22 10:18:39;;;;;;;2.20;2.00;;;13.90;92.70;;;;;;5014080;28;20429;-38
2022/09/22 10:21:06;;;;;;;2.08;1.80;;;14.00;93.20;;;;;;5012892;28;20389;-31
2022/09/22 10:23:32;;;;;;;2.25;2.08;;;14.00;91.00;;;;;;5009016;28;20037;-32
2022/09/22 10:26:19;;;;;;;1.98;1.80;;;14.10;92.80;;;;;;5014898;28;20775;-34
2022/09/22 10:29:04;;;;;;;2.10;1.90;;;14.00;83.20;;;;;;5009686;28;20041;-38
2022/09/22 10:31:31;;;;;;;2.55;2.30;;;13.90;80.20;;;;;;5011010;28;20498;-37
2022/09/22 10:33:58;;;;;;;2.30;1.88;;;13.90;90.70;;;;;;5018502;28;20029;-39
2022/09/22 10:36:29;;;;;;;2.10;1.90;;;13.90;81.60;;;;;;5019452;28;20407;-37
2022/09/22 10:38:55;;;;;;;2.30;2.03;;;14.10;88.70;;;;;;5016934;28;20038;-35
2022/09/22 10:41:26;;;;;;;1.90;1.80;;;14.20;75.50;;;;;;5019944;28;20049;-36
2022/09/22 10:43:59;;;;;;;1.58;1.48;;;14.20;77.70;;;;;;5022368;28;20338;-39
2022/09/22 10:46:50;;;;;;;2.28;2.08;;;14.20;78.70;;;;;;5017595;28;20044;-39
2022/09/22 10:49:22;;;;;;;2.63;2.10;;;14.40;81.20;;;;;;5013445;28;20025;-38
2022/09/22 10:52:00;;;;;;;2.53;1.85;;;14.60;89.80;;;;;;5012014;28;20045;-33
2022/09/22 10:54:34;;;;;;;2.25;2.05;;;14.50;73.80;;;;;;5012456;28;20041;-37
2022/09/22 10:57:08;;;;;;;1.63;1.52;;;14.50;74.00;;;;;;5014561;28;20083;-37
2022/09/22 10:59:57;;;;;;;2.22;1.98;;;14.60;80.50;;;;;;5023103;28;20033;-37
2022/09/22 11:02:44;;;;;;;1.70;1.60;;;14.60;81.10;;;;;;5023861;28;20064;-39
2022/09/22 11:14:44;;;;;;;3.08;1.70;;;14.50;68.80;;;;;;5026339;28;20052;-36
2022/09/22 11:17:48;;;;;;;1.50;1.40;;;14.40;62.40;;;;;;5033656;28;20033;-38
2022/09/22 11:20:33;;;;;;;1.45;1.35;;;14.40;75.50;;;;;;5026650;28;20425;-33
2022/09/22 11:23:25;;;;;;;3.05;1.70;;;14.70;76.90;;;;;;5034751;28;20029;-34
2022/09/22 11:26:12;;;;;;;2.38;1.60;;;14.80;71.90;;;;;;5027736;28;20036;-38
2022/09/22 11:29:19;;;;;;;1.63;1.50;;;14.70;77.10;;;;;;5026599;28;20390;-37
2022/09/22 11:32:02;;;;;;;2.33;1.55;;;14.80;69.60;;;;;;5017610;28;20128;-39
2022/09/22 11:35:05;;;;;;;3.00;1.85;;;14.80;77.90;;;;;;5015453;28;20041;-37
2022/09/22 11:37:49;;;;;;;1.83;1.73;;;15.00;81.30;;;;;;5017489;28;20044;-39
2022/09/22 11:40:31;;;;;;;1.40;1.30;;;14.90;72.20;;;;;;5017081;28;20040;-35
2022/09/22 11:43:14;;;;;;;1.63;1.52;;;14.70;67.60;;;;;;5018601;28;20037;-35
2022/09/22 11:46:04;;;;;;;2.80;1.88;;;14.60;65.50;;;;;;5018935;28;20578;-39
2022/09/22 11:48:46;;;;;;;1.58;1.48;;;14.60;71.60;;;;;;5021191;28;20033;-38
2022/09/22 11:51:26;;;;;;;1.60;1.50;;;14.50;61.90;;;;;;5018653;28;20037;-35
2022/09/22 11:54:21;;;;;;;2.85;2.10;;;14.60;66.30;;;;;;5019243;28;20037;-37
2022/09/22 11:56:50;;;;;;;2.50;1.98;;;14.70;80.10;;;;;;5014736;28;20084;-37
2022/09/22 11:59:40;;;;;;;2.10;1.90;;;14.70;74.40;;;;;;5019795;28;20029;-38
2022/09/22 12:02:17;;;;;;;1.40;1.30;;;14.70;77.30;;;;;;5022391;28;21958;-39
2022/09/22 12:05:07;;;;;;;2.03;1.20;;;14.60;60.70;;;;;;5019528;28;20406;-38
2022/09/22 12:07:43;;;;;;;1.45;1.35;;;14.50;63.70;;;;;;5019952;28;20463;-36
2022/09/22 12:10:17;;;;;;;1.45;1.33;;;14.60;71.80;;;;;;5017325;28;20133;-37
2022/09/22 12:12:47;;;;;;;1.70;1.60;;;14.70;62.90;;;;;;5020409;28;20391;-35
2022/09/22 12:15:48;;;;;;;1.77;1.50;;;14.60;61.50;;;;;;5019641;28;20053;-38
2022/09/22 12:18:17;;;;;;;1.55;1.45;;;14.70;66.70;;;;;;4988522;28;20049;-38
2022/09/22 12:21:08;;;;;;;1.55;1.45;;;14.80;77.90;;;;;;5018832;28;20509;-37
2022/09/22 12:23:42;;;;;;;1.75;1.55;;;14.90;68.30;;;;;;5021757;28;20029;-37
2022/09/22 12:26:11;;;;;;;3.05;1.50;;;14.90;71.50;;;;;;5019050;28;20414;-38
2022/09/22 12:28:40;;;;;;;2.30;1.50;;;14.80;70.00;;;;;;5019741;28;20107;-38
2022/09/22 12:31:11;;;;;;;3.65;1.48;;;14.90;63.20;;;;;;5023125;28;20072;-39
2022/09/22 12:33:58;;;;;;;1.73;1.63;;;14.80;61.50;;;;;;5021236;28;20038;-36
2022/09/22 12:36:38;;;;;;;1.95;1.70;;;14.90;68.60;;;;;;5023263;28;20041;-34
2022/09/22 12:39:17;;;;;;;1.58;1.48;;;15.10;79.40;;;;;;5025896;28;20020;-36
2022/09/22 12:41:48;;;;;;;2.70;1.98;;;15.10;65.20;;;;;;5023924;28;20108;-34
2022/09/22 12:44:19;;;;;;;2.15;1.50;;;15.20;74.40;;;;;;5025373;28;20122;-39
2022/09/22 12:46:46;;;;;;;2.30;2.10;;;15.20;68.20;;;;;;5026353;28;20045;-38
2022/09/22 12:49:19;;;;;;;2.30;1.40;;;15.30;77.60;;;;;;5026452;28;20052;-38
2022/09/22 12:51:45;;;;;;;1.73;1.38;;;15.20;66.40;;;;;;5024063;28;20041;-33
2022/09/22 12:54:22;;;;;;;1.40;1.30;;;15.20;65.00;;;;;;5026173;28;20103;-38
2022/09/22 12:57:00;;;;;;;1.60;1.50;;;15.10;60.80;;;;;;5024467;28;20513;-38
2022/09/22 12:59:34;;;;;;;1.90;1.80;;;15.20;64.90;;;;;;5024648;28;20029;-36
2022/09/22 13:02:28;;;;;;;2.05;1.50;;;15.10;66.60;;;;;;5028728;28;20273;-38
2022/09/22 13:04:56;;;;;;;1.70;1.60;;;15.20;62.20;;;;;;5030150;28;20045;-38
2022/09/22 13:07:35;;;;;;;;;;;15.30;67.80;;;;;;5043269;28;20498;-38
2022/09/22 13:10:20;;;;;;;1.90;1.80;;;15.30;81.80;;;;;;5036042;28;19913;-38
2022/09/22 13:13:10;;;;;;;4.00;2.30;;;15.40;76.10;;;;;;5034342;28;20191;-36
2022/09/22 13:15:44;;;;;;;2.13;2.00;;;15.30;71.80;;;;;;5035923;28;20167;-32
2022/09/22 13:18:33;;;;;;;2.55;2.35;;;15.30;74.70;;;;;;5035652;28;20036;-38
2022/09/22 13:21:18;;;;;;;2.72;2.03;;;15.30;72.10;;;;;;5035766;28;20104;-38
2022/09/22 13:24:03;;;;;;;2.25;2.05;;;15.30;77.80;;;;;;5034547;28;20108;-35
2022/09/22 13:26:40;;;;;;;3.70;1.70;;;15.30;74.10;;;;;;5034815;28;20107;-39
2022/09/22 13:29:10;;;;;;;1.80;1.70;;;15.20;73.90;;;;;;5032611;28;20037;-35
2022/09/22 13:31:42;;;;;;;1.80;1.60;;;15.20;69.80;;;;;;5033829;28;20118;-38
2022/09/22 13:34:35;;;;;;;2.15;1.85;;;15.20;68.90;;;;;;5035274;28;20037;-37
2022/09/22 13:37:12;;;;;;;2.22;1.80;;;15.20;70.60;;;;;;5034286;28;20461;-36
2022/09/22 13:39:40;;;;;;;1.80;1.70;;;15.30;69.10;;;;;;5031612;28;20496;-38
2022/09/22 13:42:18;;;;;;;1.67;1.58;;;15.30;67.40;;;;;;5034086;28;20337;-33
2022/09/22 13:44:46;;;;;;;1.80;1.63;;;15.30;76.40;;;;;;5034026;28;20516;-36